Tuesday, May 23, 2017, 12:40 PM EDT

KLNS, Lancaster Airport

Location: Lititz, PA, United States Lat: 40.117
Local Time: 12:40 PM EDT (16:40 GMT) Lon: -76.3
Time Zone: US/Eastern Elev: 403 ft

Show me the last for .
Show Decoded

2017-05-23 11:53 METAR KLNS 231553Z 10005KT 10SM CLR 18/11 A2996 RMK AO2 SLP144 T01830106 =
2017-05-23 10:53 METAR KLNS 231453Z 08005KT 10SM CLR 18/12 A2996 RMK AO2 SLP144 T01780117 58003 =
2017-05-23 09:53 METAR KLNS 231353Z 01004KT 10SM CLR 17/12 A2998 RMK AO2 SLP152 T01670122 =
2017-05-23 08:53 METAR KLNS 231253Z 00000KT 9SM CLR 15/14 A2998 RMK AO2 SLP150 T01500139 =
2017-05-23 07:53 METAR KLNS 231153Z 00000KT 4SM BR CLR 13/13 A2997 RMK AO2 SLP147 70010 T01330133
                 10133 20111 52006 =
2017-05-23 06:53 METAR KLNS 231053Z 00000KT 4SM BR CLR 12/12 A2997 RMK AO2 SLP148 T01220122 =
2017-05-23 05:53 METAR KLNS 230953Z 24003KT 5SM BR CLR 12/12 A2995 RMK AO2 SLP143 T01220122 =
2017-05-23 05:16 METAR KLNS 230916Z AUTO 30003KT 3SM BR FEW003 12/12 A2995 RMK AO2 T01170117 =
2017-05-23 05:11 METAR KLNS 230911Z AUTO 30004KT 1 1/4SM BR FEW003 12/12 A2995 RMK AO2 T01170117
                 =
2017-05-23 05:02 METAR KLNS 230902Z AUTO 30004KT 1/2SM FG VV003 12/12 A2995 RMK AO2 T01170117 =
2017-05-23 04:53 METAR KLNS 230853Z AUTO 30004KT 1/4SM FG CLR 11/11 A2995 RMK AO2 SLP142
                 T01110111 53001 =
2017-05-23 04:46 METAR KLNS 230846Z AUTO 29004KT 1/4SM FG VV002 11/11 A2995 RMK AO2 T01110111 =
2017-05-23 04:27 METAR KLNS 230827Z AUTO 00000KT 1/2SM FG VV002 12/12 A2996 RMK AO2 T01170117 =
2017-05-23 04:20 METAR KLNS 230820Z AUTO 00000KT 1SM BR VV002 12/12 A2996 RMK AO2 T01170117 =
2017-05-23 04:08 METAR KLNS 230808Z AUTO 25003KT 2SM BR SCT002 13/13 A2996 RMK AO2 T01280128 =
2017-05-23 04:05 METAR KLNS 230805Z AUTO 00000KT 1SM BR VV002 13/13 A2995 RMK AO2 T01280128 =
2017-05-23 03:53 METAR KLNS 230753Z AUTO 22004KT 1/4SM FG VV002 12/12 A2995 RMK AO2 SLP141
                 T01220122 =
2017-05-23 03:41 METAR KLNS 230741Z AUTO 27005KT 1/2SM FG VV002 12/12 A2994 RMK AO2 T01220122 =
2017-05-23 02:53 METAR KLNS 230653Z AUTO 30004KT 1/4SM FG VV002 13/13 A2995 RMK AO2 SLP141
                 T01280128 =
2017-05-23 02:50 METAR KLNS 230650Z AUTO 28004KT 1/4SM FG VV002 13/13 A2995 RMK AO2 =
2017-05-23 02:41 METAR KLNS 230641Z AUTO 26004KT M1/4SM FG VV001 13/13 A2995 RMK AO2 T01280128 =
2017-05-23 01:53 METAR KLNS 230553Z AUTO 24003KT M1/4SM FG VV002 13/13 A2996 RMK AO2 SLP144
                 T01330133 10178 20133 58011 =
2017-05-23 01:04 METAR KLNS 230504Z AUTO 27003KT 1/4SM FG VV003 13/13 A2997 RMK AO2 T01330133 =
2017-05-23 00:53 METAR KLNS 230453Z AUTO 26004KT 1/4SM FG VV005 13/13 A2998 RMK AO2 SLP151
                 T01330133 401780128 =
2017-05-23 00:38 METAR KLNS 230438Z AUTO 26004KT 1/4SM FG VV007 14/14 A2998 RMK AO2 T01440144 =
2017-05-23 00:26 METAR KLNS 230426Z AUTO 26003KT 1/2SM FG VV009 14/14 A2998 RMK AO2 VIS 1/4V2
                 T01440144 =
2017-05-23 00:19 METAR KLNS 230419Z AUTO 00000KT 1SM BR VV009 14/14 A2999 RMK AO2 T01440144 =
2017-05-23 00:16 METAR KLNS 230416Z AUTO 31003KT 1SM BR VV010 14/14 A2999 RMK AO2 T01440144 =
2017-05-22 23:53 METAR KLNS 230353Z AUTO 31003KT 1/4SM FG VV011 14/14 A3000 RMK AO2 SLP157
                 T01440144 =
2017-05-22 23:43 METAR KLNS 230343Z AUTO 00000KT 1/4SM FG VV012 16/16 A2999 RMK AO2 T01560156 =
2017-05-22 23:33 METAR KLNS 230333Z AUTO 00000KT 3/4SM BR VV012 16/16 A2998 RMK AO2 T01560156 =
2017-05-22 23:31 METAR KLNS 230331Z AUTO 00000KT 1 1/4SM BR FEW012 16/16 A2998 RMK AO2 T01560156
                 =
2017-05-22 22:53 METAR KLNS 230253Z 00000KT 5SM BR FEW020 17/17 A2999 RMK AO2 SLP154 T01670167
                 50004 =
2017-05-22 22:45 METAR KLNS 230245Z 00000KT 5SM BR SCT020 17/17 A2999 RMK AO2 T01670167 =
2017-05-22 22:00 METAR KLNS 230200Z 00000KT 6SM BR FEW009 OVC017 18/17 A2999 RMK AO2 T01780167 =
2017-05-22 21:53 METAR KLNS 230153Z 00000KT 6SM BR OVC016 18/17 A2999 RMK AO2 SLP155 T01780167 =
2017-05-22 21:32 METAR KLNS 230132Z 34003KT 6SM BR OVC016 18/17 A2999 RMK AO2 T01780167 =
2017-05-22 20:53 METAR KLNS 230053Z 00000KT 7SM OVC013 18/17 A2998 RMK AO2 SLP151 T01780167 =
2017-05-22 20:00 METAR KLNS 230000Z 00000KT 6SM BR OVC009 18/17 A2998 RMK AO2 T01780167 =
2017-05-22 19:53 METAR KLNS 222353Z 00000KT 6SM BR OVC012 18/17 A2998 RMK AO2 SLP150 60000
                 T01780167 10178 20161 53002 =
2017-05-22 19:27 METAR KLNS 222327Z 12003KT 6SM BR OVC012 18/17 A2997 RMK AO2 T01780167 =
2017-05-22 18:53 METAR KLNS 222253Z 12003KT 7SM BKN009 OVC013 18/17 A2997 RMK AO2 SLP146
                 T01780167 =
2017-05-22 17:53 METAR KLNS 222153Z 00000KT 8SM OVC009 18/16 A2997 RMK AO2 SLP147 T01780161 =
2017-05-22 16:53 METAR KLNS 222053Z 00000KT 9SM OVC009 17/16 A2997 RMK AO2 SLP148 60000 T01720161
                 56016 =
2017-05-22 15:53 METAR KLNS 221953Z 00000KT 9SM OVC008 17/16 A2997 RMK AO2 SLP149 T01720156 =
2017-05-22 14:53 METAR KLNS 221853Z 00000KT 7SM OVC008 17/16 A3000 RMK AO2 RAB21E53 SLP157 P0000
                 T01670156 =
2017-05-22 13:53 METAR KLNS 221753Z 00000KT 10SM OVC007 16/15 A3002 RMK AO2 SLP164 60010
                 T01610150 10167 20133 58016 =
2017-05-22 12:53 METAR KLNS 221653Z 13003KT 10SM OVC007 16/15 A3003 RMK AO2 SLP170 T01560150 =

Support USWX by starting your Amazon purchase here.